Time,TemperatureF,DewpointF,PressureIn,WindDirection,WindDirectionDegrees,WindSpeedMPH,WindSpeedGustMPH,Humidity,HourlyPrecipIn,Conditions,Clouds,dailyrainin,SoftwareType,DateUTC
2013-01-16 07:35:00,28.1,26.6,30.10,ESE,114,2.0,4.0,94,0.00,,,0.00,Wunderground v.1.15,2013-01-16 12:35:00,
2013-01-16 07:40:00,28.2,26.7,30.10,ESE,114,2.0,4.0,94,0.00,,,0.00,Wunderground v.1.15,2013-01-16 12:40:00,
2013-01-16 07:45:00,28.2,26.7,30.10,ESE,114,2.0,2.0,94,0.00,,,0.00,Wunderground v.1.15,2013-01-16 12:45:00,
2013-01-16 07:50:00,28.2,26.7,30.10,ESE,114,1.0,4.0,94,0.00,,,0.00,Wunderground v.1.15,2013-01-16 12:50:00,
2013-01-16 07:55:00,28.1,26.6,30.09,ESE,114,1.0,4.0,94,0.00,,,0.00,Wunderground v.1.15,2013-01-16 12:55:00,
2013-01-16 08:00:00,28.2,26.7,30.09,ESE,114,2.0,4.0,94,0.00,,,0.00,Wunderground v.1.15,2013-01-16 13:00:00,
2013-01-16 08:10:00,28.2,26.7,30.08,East,83,3.0,3.0,94,0.00,,,0.00,Wunderground v.1.15,2013-01-16 13:10:00,
2013-01-16 08:15:00,28.2,26.7,30.08,East,94,3.0,4.0,94,0.00,,,0.00,Wunderground v.1.15,2013-01-16 13:15:00,
2013-01-16 08:20:00,28.2,26.7,30.08,ENE,73,3.0,4.0,94,0.00,,,0.00,Wunderground v.1.15,2013-01-16 13:20:00,
2013-01-16 08:25:00,28.2,26.7,30.08,ENE,73,2.0,4.0,94,0.00,,,0.00,Wunderground v.1.15,2013-01-16 13:25:00,
2013-01-16 08:30:00,28.1,26.6,30.09,ENE,73,1.0,4.0,94,0.00,,,0.00,Wunderground v.1.15,2013-01-16 13:30:00,
2013-01-16 08:35:00,28.2,26.7,30.09,NE,46,1.0,4.0,94,0.00,,,0.00,Wunderground v.1.15,2013-01-16 13:35:00,
2013-01-16 08:40:00,28.2,26.7,30.09,ENE,57,1.0,4.0,94,0.00,,,0.00,Wunderground v.1.15,2013-01-16 13:40:00,
2013-01-16 08:50:00,28.1,26.6,30.08,ENE,57,1.0,1.0,94,0.00,,,0.00,Wunderground v.1.15,2013-01-16 13:50:00,
2013-01-16 08:55:00,28.1,26.6,30.07,East,86,1.0,3.0,94,0.00,,,0.00,Wunderground v.1.15,2013-01-16 13:55:00,
2013-01-16 09:05:00,28.1,26.6,30.07,East,100,2.0,4.0,94,0.00,,,0.00,Wunderground v.1.15,2013-01-16 14:05:00,
2013-01-16 09:10:00,28.1,26.6,30.07,East,100,1.0,1.0,94,0.00,,,0.00,Wunderground v.1.15,2013-01-16 14:10:00,
2013-01-16 09:15:00,28.1,26.6,30.06,East,100,1.0,4.0,94,0.00,,,0.00,Wunderground v.1.15,2013-01-16 14:15:00,
2013-01-16 09:20:00,28.2,26.7,30.06,East,100,0.0,4.0,94,0.00,,,0.00,Wunderground v.1.15,2013-01-16 14:20:00,
2013-01-16 09:25:00,28.2,26.7,30.05,East,100,0.0,4.0,94,0.00,,,0.00,Wunderground v.1.15,2013-01-16 14:25:00,
2013-01-16 09:35:00,28.3,26.8,30.05,East,100,0.0,4.0,94,0.00,,,0.00,Wunderground v.1.15,2013-01-16 14:35:00,
2013-01-16 09:45:00,28.4,26.9,30.03,East,100,0.0,4.0,94,0.00,,,0.00,Wunderground v.1.15,2013-01-16 14:45:00,
2013-01-16 09:50:00,28.4,26.9,30.04,East,100,0.0,4.0,94,0.00,,,0.00,Wunderground v.1.15,2013-01-16 14:50:00,
2013-01-16 09:55:00,28.4,26.9,30.02,East,100,0.0,4.0,94,0.00,,,0.00,Wunderground v.1.15,2013-01-16 14:55:00,
2013-01-16 10:00:00,28.5,27.0,30.02,East,100,0.0,4.0,94,0.00,,,0.00,Wunderground v.1.15,2013-01-16 15:00:00,
2013-01-16 10:05:00,28.5,27.0,30.02,East,100,0.0,4.0,94,0.00,,,0.00,Wunderground v.1.15,2013-01-16 15:05:00,
2013-01-16 10:10:00,28.6,27.1,30.01,East,100,0.0,4.0,94,0.00,,,0.00,Wunderground v.1.15,2013-01-16 15:10:00,
2013-01-16 10:15:00,28.7,27.2,30.01,East,100,0.0,4.0,94,0.00,,,0.00,Wunderground v.1.15,2013-01-16 15:15:00,
2013-01-16 10:20:00,28.7,27.2,30.01,East,100,0.0,4.0,94,0.00,,,0.00,Wunderground v.1.15,2013-01-16 15:20:00,
2013-01-16 10:30:00,28.6,27.1,30.01,East,100,1.0,1.0,94,0.00,,,0.00,Wunderground v.1.15,2013-01-16 15:30:00,
2013-01-16 10:35:00,28.5,27.0,30.01,East,100,1.0,4.0,94,0.00,,,0.00,Wunderground v.1.15,2013-01-16 15:35:00,
2013-01-16 10:40:00,28.5,27.0,30.01,East,100,0.0,4.0,94,0.00,,,0.00,Wunderground v.1.15,2013-01-16 15:40:00,
2013-01-16 10:45:00,28.4,26.9,30.01,East,100,0.0,4.0,94,0.00,,,0.00,Wunderground v.1.15,2013-01-16 15:45:00,
2013-01-16 10:50:00,28.4,26.9,30.01,East,100,0.0,4.0,94,0.00,,,0.00,Wunderground v.1.15,2013-01-16 15:50:00,
2013-01-16 10:55:00,28.5,27.0,30.00,East,100,0.0,4.0,94,0.00,,,0.00,Wunderground v.1.15,2013-01-16 15:55:00,
2013-01-16 11:00:00,28.6,27.4,29.98,East,100,1.0,4.0,95,0.00,,,0.00,Wunderground v.1.15,2013-01-16 16:00:00,
2013-01-16 11:05:00,28.7,27.4,29.97,East,100,1.0,4.0,95,0.00,,,0.00,Wunderground v.1.15,2013-01-16 16:05:00,
2013-01-16 11:10:00,28.9,27.6,29.96,East,100,1.0,4.0,95,0.00,,,0.00,Wunderground v.1.15,2013-01-16 16:10:00,
2013-01-16 11:20:00,28.8,27.3,29.96,ESE,115,3.0,3.0,94,0.00,,,0.00,Wunderground v.1.15,2013-01-16 16:20:00,
2013-01-16 11:30:00,28.7,27.4,29.95,ESE,115,2.0,4.0,95,0.00,,,0.00,Wunderground v.1.15,2013-01-16 16:30:00,
2013-01-16 11:35:00,28.6,27.4,29.95,ESE,115,2.0,4.0,95,0.00,,,0.00,Wunderground v.1.15,2013-01-16 16:35:00,
2013-01-16 11:40:00,28.6,27.4,29.94,ESE,115,3.0,3.0,95,0.00,,,0.00,Wunderground v.1.15,2013-01-16 16:40:00,
2013-01-16 11:45:00,28.7,27.4,29.95,ESE,118,3.0,4.0,95,0.00,,,0.00,Wunderground v.1.15,2013-01-16 16:45:00,
2013-01-16 11:50:00,28.6,27.4,29.94,ESE,118,3.0,3.0,95,0.00,,,0.00,Wunderground v.1.15,2013-01-16 16:50:00,
2013-01-16 11:55:00,28.7,27.4,29.94,ESE,118,2.0,4.0,95,0.00,,,0.00,Wunderground v.1.15,2013-01-16 16:55:00,
2013-01-16 12:00:00,28.7,27.4,29.94,ESE,118,2.0,2.0,95,0.00,,,0.00,Wunderground v.1.15,2013-01-16 17:00:00,
2013-01-16 12:05:00,28.8,27.5,29.94,ESE,118,1.0,4.0,95,0.00,,,0.00,Wunderground v.1.15,2013-01-16 17:05:00,
2013-01-16 12:15:00,28.8,27.5,29.94,ESE,118,0.0,4.0,95,0.00,,,0.00,Wunderground v.1.15,2013-01-16 17:15:00,
2013-01-16 12:20:00,28.8,27.5,29.93,ESE,118,1.0,1.0,95,0.00,,,0.00,Wunderground v.1.15,2013-01-16 17:20:00,
2013-01-16 12:30:00,28.9,27.6,29.92,ESE,118,0.0,4.0,95,0.00,,,0.00,Wunderground v.1.15,2013-01-16 17:30:00,
2013-01-16 12:35:00,28.9,27.6,29.91,ESE,118,0.0,4.0,95,0.00,,,0.00,Wunderground v.1.15,2013-01-16 17:35:00,
2013-01-16 12:40:00,29.0,27.7,29.91,ESE,118,0.0,4.0,95,0.00,,,0.00,Wunderground v.1.15,2013-01-16 17:40:00,
2013-01-16 12:45:00,29.1,27.8,29.91,ESE,118,0.0,4.0,95,0.00,,,0.00,Wunderground v.1.15,2013-01-16 17:45:00,
2013-01-16 12:50:00,29.1,27.8,29.91,ESE,118,0.0,4.0,95,0.00,,,0.00,Wunderground v.1.15,2013-01-16 17:50:00,
2013-01-16 13:00:00,29.1,27.8,29.92,ESE,118,0.0,4.0,95,0.00,,,0.00,Wunderground v.1.15,2013-01-16 18:00:00,
2013-01-16 13:05:00,29.1,27.8,29.91,ESE,118,0.0,4.0,95,0.00,,,0.00,Wunderground v.1.15,2013-01-16 18:05:00,
2013-01-16 13:10:00,29.2,27.9,29.91,ESE,118,0.0,4.0,95,0.00,,,0.00,Wunderground v.1.15,2013-01-16 18:10:00,
2013-01-16 13:15:00,29.2,27.9,29.90,ESE,118,0.0,4.0,95,0.00,,,0.00,Wunderground v.1.15,2013-01-16 18:15:00,
2013-01-16 13:20:00,29.3,28.0,29.89,ESE,118,1.0,4.0,95,0.00,,,0.00,Wunderground v.1.15,2013-01-16 18:20:00,
2013-01-16 13:25:00,29.3,28.0,29.89,ESE,118,2.0,4.0,95,0.00,,,0.00,Wunderground v.1.15,2013-01-16 18:25:00,
2013-01-16 13:35:00,29.3,28.0,29.89,ESE,118,2.0,4.0,95,0.00,,,0.00,Wunderground v.1.15,2013-01-16 18:35:00,
2013-01-16 13:40:00,29.2,27.9,29.88,ESE,118,2.0,4.0,95,0.00,,,0.00,Wunderground v.1.15,2013-01-16 18:40:00,
2013-01-16 13:50:00,29.2,27.9,29.85,ESE,118,2.0,2.0,95,0.00,,,0.00,Wunderground v.1.15,2013-01-16 18:50:00,
2013-01-16 13:55:00,29.2,27.9,29.84,ESE,118,2.0,4.0,95,0.00,,,0.00,Wunderground v.1.15,2013-01-16 18:55:00,
2013-01-16 14:00:00,29.2,27.9,29.84,ESE,118,1.0,1.0,95,0.00,,,0.00,Wunderground v.1.15,2013-01-16 19:00:00,
2013-01-16 14:10:00,29.2,27.9,29.85,ESE,118,0.0,4.0,95,0.00,,,0.00,Wunderground v.1.15,2013-01-16 19:10:00,
2013-01-16 14:15:00,29.2,27.9,29.85,ESE,118,0.0,4.0,95,0.00,,,0.00,Wunderground v.1.15,2013-01-16 19:15:00,
2013-01-16 14:20:00,29.3,28.0,29.87,ESE,118,1.0,4.0,95,0.00,,,0.00,Wunderground v.1.15,2013-01-16 19:20:00,
2013-01-16 14:25:00,29.3,28.0,29.86,ESE,118,1.0,4.0,95,0.00,,,0.00,Wunderground v.1.15,2013-01-16 19:25:00,
2013-01-16 14:35:00,29.3,28.0,29.86,ESE,118,0.0,4.0,95,0.00,,,0.00,Wunderground v.1.15,2013-01-16 19:35:00,
2013-01-16 14:45:00,29.3,28.0,29.86,ESE,118,0.0,4.0,95,0.00,,,0.00,Wunderground v.1.15,2013-01-16 19:45:00,
2013-01-16 14:50:00,29.3,28.0,29.84,ESE,118,0.0,4.0,95,0.00,,,0.00,Wunderground v.1.15,2013-01-16 19:50:00,
2013-01-16 14:55:00,29.3,28.0,29.84,ESE,118,0.0,4.0,95,0.00,,,0.00,Wunderground v.1.15,2013-01-16 19:55:00,
2013-01-16 15:00:00,29.3,28.0,29.84,ESE,118,0.0,4.0,95,0.00,,,0.00,Wunderground v.1.15,2013-01-16 20:00:00,
2013-01-16 15:05:00,29.4,28.1,29.84,ESE,118,0.0,4.0,95,0.00,,,0.00,Wunderground v.1.15,2013-01-16 20:05:00,
2013-01-16 15:10:00,29.4,28.1,29.84,ESE,118,0.0,4.0,95,0.00,,,0.00,Wunderground v.1.15,2013-01-16 20:10:00,
2013-01-16 15:20:00,29.5,28.2,29.83,ESE,118,0.0,4.0,95,0.00,,,0.00,Wunderground v.1.15,2013-01-16 20:20:00,
2013-01-16 15:30:00,29.5,28.2,29.84,ESE,118,0.0,4.0,95,0.00,,,0.00,Wunderground v.1.15,2013-01-16 20:30:00,
2013-01-16 15:35:00,29.5,28.2,29.84,ESE,118,0.0,4.0,95,0.00,,,0.00,Wunderground v.1.15,2013-01-16 20:35:00,
2013-01-16 15:40:00,29.5,28.2,29.84,ESE,118,0.0,4.0,95,0.00,,,0.00,Wunderground v.1.15,2013-01-16 20:40:00,
2013-01-16 15:45:00,29.5,28.2,29.84,ESE,118,0.0,4.0,95,0.00,,,0.00,Wunderground v.1.15,2013-01-16 20:45:00,
2013-01-16 15:55:00,29.5,28.2,29.84,ESE,118,1.0,4.0,95,0.00,,,0.00,Wunderground v.1.15,2013-01-16 20:55:00,
2013-01-16 16:00:00,29.5,28.2,29.83,ESE,118,0.0,4.0,95,0.00,,,0.00,Wunderground v.1.15,2013-01-16 21:00:00,
2013-01-16 16:05:00,29.5,28.2,29.84,ESE,118,0.0,4.0,95,0.00,,,0.00,Wunderground v.1.15,2013-01-16 21:05:00,
2013-01-16 16:15:00,29.4,28.1,29.84,ESE,118,0.0,4.0,95,0.00,,,0.00,Wunderground v.1.15,2013-01-16 21:15:00,
2013-01-16 16:20:00,29.3,28.0,29.84,ESE,118,0.0,4.0,95,0.00,,,0.00,Wunderground v.1.15,2013-01-16 21:20:00,
2013-01-16 16:25:00,29.4,28.1,29.84,ESE,118,0.0,4.0,95,0.00,,,0.00,Wunderground v.1.15,2013-01-16 21:25:00,
2013-01-16 16:30:00,29.4,28.1,29.83,ESE,118,0.0,4.0,95,0.00,,,0.00,Wunderground v.1.15,2013-01-16 21:30:00,
2013-01-16 16:35:00,29.4,28.1,29.83,ESE,118,0.0,4.0,95,0.00,,,0.00,Wunderground v.1.15,2013-01-16 21:35:00,
2013-01-16 16:40:00,29.4,28.1,29.84,ESE,118,0.0,4.0,95,0.00,,,0.00,Wunderground v.1.15,2013-01-16 21:40:00,
2013-01-16 16:45:00,29.4,28.1,29.83,ESE,118,0.0,4.0,95,0.00,,,0.00,Wunderground v.1.15,2013-01-16 21:45:00,
2013-01-16 16:50:00,29.4,28.1,29.83,ESE,118,0.0,4.0,95,0.00,,,0.00,Wunderground v.1.15,2013-01-16 21:50:00,
2013-01-16 17:00:00,29.5,28.2,29.84,ESE,118,0.0,4.0,95,0.00,,,0.00,Wunderground v.1.15,2013-01-16 22:00:00,
2013-01-16 17:10:00,29.5,28.2,29.83,ESE,118,0.0,4.0,95,0.00,,,0.00,Wunderground v.1.15,2013-01-16 22:10:00,
2013-01-16 17:15:00,29.6,28.3,29.83,ESE,118,0.0,4.0,95,0.00,,,0.00,Wunderground v.1.15,2013-01-16 22:15:00,
2013-01-16 17:20:00,29.5,28.2,29.83,ESE,118,0.0,4.0,95,0.00,,,0.00,Wunderground v.1.15,2013-01-16 22:20:00,
2013-01-16 17:25:00,29.5,28.2,29.83,ESE,118,0.0,4.0,95,0.00,,,0.00,Wunderground v.1.15,2013-01-16 22:25:00,
2013-01-16 17:35:00,29.5,28.2,29.83,ESE,118,0.0,4.0,95,0.00,,,0.00,Wunderground v.1.15,2013-01-16 22:35:00,
2013-01-16 17:40:00,29.5,28.2,29.82,ESE,118,0.0,4.0,95,0.00,,,0.00,Wunderground v.1.15,2013-01-16 22:40:00,
2013-01-16 17:45:00,29.4,28.1,29.82,ESE,118,0.0,4.0,95,0.00,,,0.00,Wunderground v.1.15,2013-01-16 22:45:00,
2013-01-16 17:55:00,29.3,28.0,29.82,ESE,118,0.0,4.0,95,0.00,,,0.00,Wunderground v.1.15,2013-01-16 22:55:00,
2013-01-16 18:00:00,29.3,28.0,29.82,ESE,118,0.0,4.0,95,0.00,,,0.00,Wunderground v.1.15,2013-01-16 23:00:00,
2013-01-16 18:10:00,29.2,27.9,29.81,ESE,118,0.0,4.0,95,0.00,,,0.00,Wunderground v.1.15,2013-01-16 23:10:00,
2013-01-16 18:15:00,29.3,28.0,29.81,ESE,118,0.0,4.0,95,0.00,,,0.00,Wunderground v.1.15,2013-01-16 23:15:00,
2013-01-16 18:20:00,29.2,27.9,29.80,ESE,118,0.0,4.0,95,0.00,,,0.00,Wunderground v.1.15,2013-01-16 23:20:00,
2013-01-16 18:25:00,29.2,27.9,29.80,ESE,118,0.0,4.0,95,0.00,,,0.00,Wunderground v.1.15,2013-01-16 23:25:00,
2013-01-16 18:30:00,29.2,27.9,29.80,ESE,118,0.0,4.0,95,0.00,,,0.00,Wunderground v.1.15,2013-01-16 23:30:00,
2013-01-16 18:35:00,29.1,27.8,29.79,ESE,118,0.0,4.0,95,0.00,,,0.00,Wunderground v.1.15,2013-01-16 23:35:00,
2013-01-16 18:45:00,28.9,27.6,29.79,ESE,118,0.0,4.0,95,0.00,,,0.00,Wunderground v.1.15,2013-01-16 23:45:00,
2013-01-16 18:50:00,28.8,27.5,29.79,ESE,118,0.0,4.0,95,0.00,,,0.00,Wunderground v.1.15,2013-01-16 23:50:00,
2013-01-16 18:55:00,28.7,27.4,29.80,ESE,118,0.0,4.0,95,0.00,,,0.00,Wunderground v.1.15,2013-01-16 23:55:00,
2013-01-16 19:00:00,28.7,27.4,29.80,ESE,118,0.0,4.0,95,0.00,,,0.00,Wunderground v.1.15,2013-01-17 00:00:00,
2013-01-16 19:05:00,28.7,27.4,29.80,ESE,118,0.0,4.0,95,0.00,,,0.00,Wunderground v.1.15,2013-01-17 00:05:00,
2013-01-16 19:10:00,28.7,27.4,29.80,ESE,118,0.0,4.0,95,0.00,,,0.00,Wunderground v.1.15,2013-01-17 00:10:00,
2013-01-16 19:20:00,28.9,27.6,29.81,ESE,118,0.0,4.0,95,0.00,,,0.00,Wunderground v.1.15,2013-01-17 00:20:00,
2013-01-16 19:25:00,29.0,27.7,29.80,ESE,118,0.0,4.0,95,0.00,,,0.00,Wunderground v.1.15,2013-01-17 00:25:00,
2013-01-16 19:35:00,29.0,27.7,29.80,ESE,118,0.0,4.0,95,0.00,,,0.00,Wunderground v.1.15,2013-01-17 00:35:00,
2013-01-16 19:40:00,29.0,27.7,29.80,ESE,118,0.0,4.0,95,0.00,,,0.00,Wunderground v.1.15,2013-01-17 00:40:00,
2013-01-16 19:45:00,29.0,27.7,29.80,ESE,118,0.0,4.0,95,0.00,,,0.00,Wunderground v.1.15,2013-01-17 00:45:00,
2013-01-16 19:55:00,29.1,27.8,29.80,ESE,118,0.0,4.0,95,0.00,,,0.00,Wunderground v.1.15,2013-01-17 00:55:00,
2013-01-16 20:00:00,29.2,27.9,29.80,ESE,118,0.0,4.0,95,0.00,,,0.00,Wunderground v.1.15,2013-01-17 01:00:00,
2013-01-16 20:05:00,29.2,27.9,29.80,ESE,118,0.0,4.0,95,0.00,,,0.00,Wunderground v.1.15,2013-01-17 01:05:00,
2013-01-16 20:10:00,29.2,27.9,29.80,ESE,118,0.0,4.0,95,0.00,,,0.00,Wunderground v.1.15,2013-01-17 01:10:00,
2013-01-16 20:15:00,29.2,27.9,29.80,ESE,118,0.0,4.0,95,0.00,,,0.00,Wunderground v.1.15,2013-01-17 01:15:00,
2013-01-16 20:25:00,29.2,27.9,29.80,ESE,118,0.0,4.0,95,0.00,,,0.00,Wunderground v.1.15,2013-01-17 01:25:00,
2013-01-16 20:30:00,29.2,27.9,29.80,ESE,118,0.0,4.0,95,0.00,,,0.00,Wunderground v.1.15,2013-01-17 01:30:00,
2013-01-16 20:35:00,29.2,27.9,29.80,ESE,118,0.0,4.0,95,0.00,,,0.00,Wunderground v.1.15,2013-01-17 01:35:00,
2013-01-16 20:40:00,29.2,27.9,29.80,ESE,118,0.0,4.0,95,0.00,,,0.00,Wunderground v.1.15,2013-01-17 01:40:00,
2013-01-16 20:45:00,29.2,27.9,29.80,ESE,118,0.0,4.0,95,0.00,,,0.00,Wunderground v.1.15,2013-01-17 01:45:00,
2013-01-16 20:50:00,29.2,27.9,29.79,ESE,118,0.0,4.0,95,0.00,,,0.00,Wunderground v.1.15,2013-01-17 01:50:00,
2013-01-16 21:00:00,29.3,28.0,29.79,ESE,118,0.0,4.0,95,0.00,,,0.00,Wunderground v.1.15,2013-01-17 02:00:00,
2013-01-16 21:05:00,29.3,28.0,29.79,ESE,118,0.0,4.0,95,0.00,,,0.00,Wunderground v.1.15,2013-01-17 02:05:00,
2013-01-16 21:15:00,29.3,28.0,29.78,ESE,118,0.0,4.0,95,0.00,,,0.00,Wunderground v.1.15,2013-01-17 02:15:00,
2013-01-16 21:20:00,29.3,28.0,29.78,ESE,118,0.0,4.0,95,0.00,,,0.00,Wunderground v.1.15,2013-01-17 02:20:00,
2013-01-16 21:25:00,29.3,28.0,29.78,ESE,118,0.0,4.0,95,0.00,,,0.00,Wunderground v.1.15,2013-01-17 02:25:00,
2013-01-16 21:30:00,29.3,28.0,29.78,ESE,118,0.0,4.0,95,0.00,,,0.00,Wunderground v.1.15,2013-01-17 02:30:00,
2013-01-16 21:35:00,29.4,28.1,29.78,ESE,118,0.0,4.0,95,0.00,,,0.00,Wunderground v.1.15,2013-01-17 02:35:00,
2013-01-16 21:40:00,29.3,28.0,29.78,ESE,118,0.0,4.0,95,0.00,,,0.00,Wunderground v.1.15,2013-01-17 02:40:00,
2013-01-16 21:45:00,29.3,28.0,29.77,ESE,118,0.0,4.0,95,0.00,,,0.00,Wunderground v.1.15,2013-01-17 02:45:00,
2013-01-16 21:55:00,29.3,28.0,29.78,ESE,118,0.0,4.0,95,0.00,,,0.00,Wunderground v.1.15,2013-01-17 02:55:00,
2013-01-16 22:00:00,29.3,28.0,29.78,ESE,118,0.0,4.0,95,0.00,,,0.00,Wunderground v.1.15,2013-01-17 03:00:00,
2013-01-16 22:10:00,29.3,28.0,29.77,ESE,118,0.0,4.0,95,0.00,,,0.00,Wunderground v.1.15,2013-01-17 03:10:00,
2013-01-16 22:15:00,29.3,28.0,29.77,ESE,118,0.0,4.0,95,0.00,,,0.00,Wunderground v.1.15,2013-01-17 03:15:00,
2013-01-16 22:20:00,29.3,28.0,29.77,ESE,118,0.0,4.0,95,0.00,,,0.00,Wunderground v.1.15,2013-01-17 03:20:00,
2013-01-16 22:25:00,29.3,28.0,29.77,ESE,118,0.0,4.0,95,0.00,,,0.00,Wunderground v.1.15,2013-01-17 03:25:00,
2013-01-16 22:30:00,29.3,28.0,29.77,ESE,118,0.0,4.0,95,0.00,,,0.00,Wunderground v.1.15,2013-01-17 03:30:00,
2013-01-16 22:35:00,29.3,28.0,29.77,ESE,118,0.0,4.0,95,0.00,,,0.00,Wunderground v.1.15,2013-01-17 03:35:00,
2013-01-16 22:45:00,29.3,28.0,29.77,ESE,118,0.0,4.0,95,0.00,,,0.00,Wunderground v.1.15,2013-01-17 03:45:00,
2013-01-16 22:50:00,29.4,28.1,29.76,ESE,118,0.0,4.0,95,0.00,,,0.00,Wunderground v.1.15,2013-01-17 03:50:00,
2013-01-16 22:55:00,29.4,28.1,29.77,ESE,118,0.0,4.0,95,0.00,,,0.00,Wunderground v.1.15,2013-01-17 03:55:00,
2013-01-16 23:00:00,29.4,28.1,29.76,ESE,118,0.0,4.0,95,0.00,,,0.00,Wunderground v.1.15,2013-01-17 04:00:00,
2013-01-16 23:05:00,29.4,28.1,29.76,ESE,118,0.0,4.0,95,0.00,,,0.00,Wunderground v.1.15,2013-01-17 04:05:00,
2013-01-16 23:10:00,29.5,28.2,29.76,ESE,118,0.0,4.0,95,0.00,,,0.00,Wunderground v.1.15,2013-01-17 04:10:00,
2013-01-16 23:15:00,29.5,28.2,29.76,ESE,118,0.0,4.0,95,0.00,,,0.00,Wunderground v.1.15,2013-01-17 04:15:00,
2013-01-16 23:20:00,29.5,28.2,29.76,ESE,118,0.0,4.0,95,0.00,,,0.00,Wunderground v.1.15,2013-01-17 04:20:00,
2013-01-16 23:25:00,29.6,28.3,29.76,ESE,118,0.0,4.0,95,0.00,,,0.00,Wunderground v.1.15,2013-01-17 04:25:00,
2013-01-16 23:35:00,29.5,28.2,29.76,ESE,118,0.0,4.0,95,0.00,,,0.00,Wunderground v.1.15,2013-01-17 04:35:00,
2013-01-16 23:40:00,29.6,28.3,29.76,ESE,118,0.0,4.0,95,0.00,,,0.00,Wunderground v.1.15,2013-01-17 04:40:00,
2013-01-16 23:45:00,29.6,28.3,29.76,ESE,118,0.0,4.0,95,0.00,,,0.00,Wunderground v.1.15,2013-01-17 04:45:00,
2013-01-16 23:50:00,29.7,28.4,29.76,ESE,118,0.0,4.0,95,0.00,,,0.00,Wunderground v.1.15,2013-01-17 04:50:00,
2013-01-16 23:55:00,29.7,28.4,29.75,ESE,118,0.0,4.0,95,0.00,,,0.00,Wunderground v.1.15,2013-01-17 04:55:00,